Time;durP1;ratioP1;P1;durP2;ratioP2;P2;SDS_P1;SDS_P2;PMS_P1;PMS_P2;Temp;Humidity;BMP_temperature;BMP_pressure;BME280_temperature;BME280_humidity;BME280_pressure;Samples;Min_cycle;Max_cycle;Signal;HPM_P1;HPM_P2
2021/12/14 00:01:34;;;;;;;17.25;9.07;;;;;;;6.63;56.40;101764.09;5094227;28;20051;-56
2021/12/14 00:04:32;;;;;;;17.50;8.63;;;;;;;6.73;56.06;101762.25;5094182;28;20510;-57
2021/12/14 00:07:18;;;;;;;18.83;9.48;;;;;;;6.58;56.42;101755.97;5094458;28;20046;-58
2021/12/14 00:10:16;;;;;;;23.92;8.75;;;;;;;6.69;57.09;101757.63;5094451;28;20039;-57
2021/12/14 00:13:15;;;;;;;19.95;10.52;;;;;;;6.75;56.17;101760.09;5094583;28;20066;-55
2021/12/14 00:16:00;;;;;;;16.15;8.85;;;;;;;6.66;56.43;101764.38;5093688;28;20045;-57
2021/12/14 00:18:45;;;;;;;14.90;7.53;;;;;;;6.65;56.05;101757.38;5102683;28;20059;-56
2021/12/14 00:21:31;;;;;;;11.00;7.07;;;;;;;6.74;56.09;101772.00;5093937;28;20078;-57
2021/12/14 00:24:17;;;;;;;15.85;8.73;;;;;;;6.48;56.35;101767.53;5094396;28;20051;-57
2021/12/14 00:27:05;;;;;;;18.08;8.40;;;;;;;6.67;56.84;101760.59;5094037;28;20078;-55
2021/12/14 00:29:54;;;;;;;13.63;8.30;;;;;;;6.85;55.41;101770.97;5097357;28;20047;-57
2021/12/14 00:32:39;;;;;;;13.80;8.30;;;;;;;6.87;54.60;101768.78;5094016;28;20117;-56
2021/12/14 00:35:24;;;;;;;13.60;8.38;;;;;;;6.74;56.12;101761.19;5093685;28;20517;-57
2021/12/14 00:38:11;;;;;;;12.07;6.57;;;;;;;6.84;56.73;101761.22;5093731;28;20051;-56
2021/12/14 00:41:01;;;;;;;13.77;8.23;;;;;;;6.73;55.65;101764.13;5094027;28;20157;-57
2021/12/14 00:43:47;;;;;;;21.08;9.15;;;;;;;6.75;55.79;101775.50;5093612;28;20079;-55
2021/12/14 00:46:33;;;;;;;20.13;8.95;;;;;;;6.59;55.67;101779.22;5093338;28;20051;-56
2021/12/14 00:49:19;;;;;;;15.55;8.82;;;;;;;6.35;58.30;101767.97;5093716;28;20407;-56
2021/12/14 00:52:05;;;;;;;17.13;10.27;;;;;;;6.31;56.87;101775.81;5094748;28;20059;-56
2021/12/14 00:54:50;;;;;;;19.48;9.38;;;;;;;6.20;58.37;101768.69;5093454;28;20047;-56
2021/12/14 00:57:37;;;;;;;12.90;7.75;;;;;;;6.38;59.87;101778.28;5093465;28;20062;-56
2021/12/14 01:00:26;;;;;;;15.82;8.80;;;;;;;6.28;57.27;101767.41;5092797;28;20075;-55
2021/12/14 01:03:12;;;;;;;15.98;8.93;;;;;;;6.35;56.91;101765.28;5096873;23;20048;-76
2021/12/14 01:06:00;;;;;;;21.25;8.95;;;;;;;6.26;56.77;101756.88;5046975;28;20547;-77
2021/12/14 01:08:47;;;;;;;14.88;8.05;;;;;;;6.08;56.87;101751.91;5064104;28;20055;-77
2021/12/14 01:11:40;;;;;;;20.88;8.73;;;;;;;6.05;57.24;101747.00;5048195;28;20064;-77
2021/12/14 01:14:44;;;;;;;18.83;9.45;;;;;;;6.11;57.51;101751.38;5040013;28;20547;-77
2021/12/14 01:17:41;;;;;;;18.40;8.75;;;;;;;6.15;57.38;101751.66;5043450;28;20130;-77
2021/12/14 01:20:31;;;;;;;13.98;8.13;;;;;;;6.29;57.24;101750.13;5053153;28;20052;-75
2021/12/14 01:23:28;;;;;;;11.27;7.18;;;;;;;6.26;56.97;101740.66;5047375;28;20063;-79
2021/12/14 01:26:18;;;;;;;17.20;8.57;;;;;;;6.19;57.09;101740.09;5033838;28;20052;-79
2021/12/14 01:29:05;;;;;;;16.63;8.52;;;;;;;6.18;56.77;101734.94;5041288;28;20095;-78
2021/12/14 01:31:52;;;;;;;14.68;8.10;;;;;;;6.16;57.22;101737.91;5030034;28;20048;-77
2021/12/14 01:34:37;;;;;;;16.70;9.93;;;;;;;6.22;57.63;101742.25;5035552;28;20433;-77
2021/12/14 01:37:27;;;;;;;16.90;9.15;;;;;;;5.92;57.08;101750.97;5021217;28;20064;-76
2021/12/14 01:40:29;;;;;;;17.63;9.35;;;;;;;5.86;58.39;101735.78;5025296;28;20064;-78
2021/12/14 01:43:14;;;;;;;20.88;8.23;;;;;;;5.86;57.87;101743.88;5008549;28;20052;-78
2021/12/14 01:46:03;;;;;;;10.70;6.13;;;;;;;5.85;57.93;101753.03;5022112;28;20069;-76
2021/12/14 01:48:50;;;;;;;33.60;8.95;;;;;;;5.44;57.97;101753.75;5042826;28;20044;-79
2021/12/14 01:52:07;;;;;;;16.02;8.27;;;;;;;5.34;60.81;101753.66;5038547;28;20508;-77
2021/12/14 01:55:00;;;;;;;15.93;7.43;;;;;;;5.68;59.49;101752.38;5036839;28;20049;-77
2021/12/14 01:57:45;;;;;;;19.27;8.40;;;;;;;5.74;58.53;101751.31;5021477;28;20048;-76
2021/12/14 02:00:36;;;;;;;9.98;5.97;;;;;;;5.91;58.39;101752.03;5036272;28;20047;-75
2021/12/14 02:03:31;;;;;;;13.68;7.63;;;;;;;5.94;58.39;101740.72;5026247;28;20051;-76
2021/12/14 02:06:23;;;;;;;12.50;6.70;;;;;;;5.85;58.20;101746.81;5028610;28;20051;-77
2021/12/14 02:09:17;;;;;;;12.52;6.55;;;;;;;5.94;58.45;101740.72;5006832;28;20051;-77
2021/12/14 02:12:19;;;;;;;9.93;6.53;;;;;;;5.87;60.34;101752.81;5025636;28;20044;-76
2021/12/14 02:15:09;;;;;;;14.50;7.38;;;;;;;5.86;59.99;101749.25;5031466;28;20051;-77
2021/12/14 02:17:57;;;;;;;12.07;7.60;;;;;;;5.96;58.24;101749.38;5028562;28;20508;-76
2021/12/14 02:20:53;;;;;;;14.88;7.57;;;;;;;5.94;58.22;101740.72;5019445;28;20072;-77
2021/12/14 02:23:41;;;;;;;22.52;7.95;;;;;;;5.88;61.82;101730.97;5008597;28;20426;-77
2021/12/14 02:26:30;;;;;;;18.98;8.07;;;;;;;6.05;58.78;101738.06;5056035;28;20702;-76
2021/12/14 02:29:28;;;;;;;14.20;6.90;;;;;;;6.00;58.49;101730.75;5025934;28;20044;-76
2021/12/14 02:32:25;;;;;;;14.50;7.57;;;;;;;6.03;58.37;101734.84;5043091;28;20056;-76
2021/12/14 02:35:14;;;;;;;16.83;8.07;;;;;;;6.06;58.43;101731.63;5026570;28;20048;-76
2021/12/14 02:38:05;;;;;;;15.60;7.13;;;;;;;5.84;58.89;101727.09;5024415;28;20052;-78
2021/12/14 02:41:10;;;;;;;16.02;7.82;;;;;;;5.88;58.68;101733.66;5035923;28;20049;-77
2021/12/14 02:44:12;;;;;;;16.40;7.82;;;;;;;5.85;60.01;101742.22;5026211;28;20052;-76
2021/12/14 02:47:02;;;;;;;13.00;7.70;;;;;;;5.93;60.74;101740.97;5050227;28;20067;-77
2021/12/14 02:49:49;;;;;;;11.75;7.53;;;;;;;5.80;60.91;101739.50;5042408;28;20052;-76
2021/12/14 02:52:37;;;;;;;14.45;7.65;;;;;;;5.90;61.82;101736.91;5022275;28;20044;-77
2021/12/14 02:55:25;;;;;;;15.27;7.43;;;;;;;5.97;59.83;101740.22;5008327;28;20060;-78
2021/12/14 02:58:10;;;;;;;14.55;7.57;;;;;;;6.00;60.58;101749.66;5034027;28;20052;-76
2021/12/14 03:00:58;;;;;;;11.45;7.05;;;;;;;5.91;60.79;101749.34;5036606;28;20056;-76
2021/12/14 03:03:43;;;;;;;13.50;7.90;;;;;;;5.97;64.74;101742.09;5037864;28;20052;-77
2021/12/14 03:06:31;;;;;;;13.32;7.07;;;;;;;6.12;59.65;101736.78;5006442;28;20052;-77
2021/12/14 03:09:55;;;;;;;17.88;6.93;;;;;;;6.10;59.71;101744.31;5011647;28;20056;-76
2021/12/14 03:12:43;;;;;;;12.57;6.25;;;;;;;6.16;62.38;101754.09;5029583;28;20044;-77
2021/12/14 03:15:33;;;;;;;10.40;6.25;;;;;;;6.20;61.39;101748.97;5046324;28;20108;-78
2021/12/14 03:18:26;;;;;;;10.52;7.05;;;;;;;6.05;59.77;101741.59;5041465;28;20048;-76
2021/12/14 03:21:17;;;;;;;15.63;6.40;;;;;;;6.06;61.12;101731.63;5041751;28;20555;-76
2021/12/14 03:24:11;;;;;;;11.35;6.30;;;;;;;5.99;59.53;101721.84;5040247;28;20051;-76
2021/12/14 03:26:57;;;;;;;13.35;6.68;;;;;;;6.00;59.61;101722.66;5044183;28;20056;-76
2021/12/14 03:29:41;;;;;;;13.85;7.95;;;;;;;6.04;58.68;101720.28;5042808;28;20044;-76
2021/12/14 03:32:26;;;;;;;9.05;4.75;;;;;;;6.01;59.38;101730.50;5026632;28;20052;-74
2021/12/14 03:35:11;;;;;;;8.10;4.68;;;;;;;5.94;60.22;101739.91;5033059;28;20516;-76
2021/12/14 03:38:06;;;;;;;9.15;5.68;;;;;;;6.06;59.68;101743.22;5023338;28;20056;-76
2021/12/14 03:41:14;;;;;;;22.98;6.28;;;;;;;6.05;61.79;101752.41;5045622;28;20059;-76
2021/12/14 03:44:12;;;;;;;9.23;5.47;;;;;;;6.11;61.44;101750.53;5040746;28;20112;-80
2021/12/14 03:47:13;;;;;;;13.48;5.80;;;;;;;6.24;61.14;101737.41;5055179;28;20051;-77
2021/12/14 03:50:15;;;;;;;9.88;6.00;;;;;;;5.90;59.20;101734.19;5029583;28;20405;-76
2021/12/14 03:53:00;;;;;;;16.38;5.93;;;;;;;5.73;59.04;101727.31;5041062;28;20056;-76
2021/12/14 03:55:50;;;;;;;9.35;5.68;;;;;;;5.55;59.44;101728.50;5045588;28;20043;-79
2021/12/14 03:58:40;;;;;;;12.68;6.40;;;;;;;5.64;58.61;101728.84;5045315;28;20528;-77
2021/12/14 04:01:29;;;;;;;15.43;6.63;;;;;;;5.62;59.69;101723.72;5036507;28;20048;-77
2021/12/14 04:04:24;;;;;;;29.33;10.00;;;;;;;5.78;61.11;101727.34;5016530;28;20048;-77
2021/12/14 04:07:13;;;;;;;23.80;8.13;;;;;;;5.60;62.21;101721.25;5036442;28;20048;-76
2021/12/14 04:10:03;;;;;;;18.65;7.47;;;;;;;5.74;59.78;101727.03;5027473;28;20069;-77
2021/12/14 04:12:47;;;;;;;10.82;5.93;;;;;;;5.86;58.25;101743.06;5038608;28;20056;-78
2021/12/14 04:15:34;;;;;;;17.55;8.05;;;;;;;5.59;59.36;101743.09;5022451;28;20548;-77
2021/12/14 04:18:20;;;;;;;24.80;7.53;;;;;;;5.70;61.70;101734.00;5021234;28;20421;-78
2021/12/14 04:21:05;;;;;;;;;;;;;;;5.59;60.14;101733.13;5048862;28;20047;-78
2021/12/14 04:23:51;;;;;;;9.23;4.20;;;;;;;5.63;60.29;101729.91;5026492;28;20292;-79
2021/12/14 04:26:45;;;;;;;12.35;5.47;;;;;;;5.70;58.01;101736.72;5039992;28;20679;-78
2021/12/14 04:29:33;;;;;;;16.98;6.35;;;;;;;5.57;57.58;101729.06;5036844;28;20049;-77
2021/12/14 04:32:22;;;;;;;15.25;5.85;;;;;;;5.44;58.27;101724.88;5020244;28;20041;-78
2021/12/14 04:35:08;;;;;;;12.25;6.80;;;;;;;5.44;58.20;101730.28;5025502;28;20053;-79
2021/12/14 04:37:58;;;;;;;15.07;5.90;;;;;;;5.57;59.65;101737.97;5009699;28;20532;-78
2021/12/14 04:53:02;;;;;;;14.50;5.50;;;;;;;5.41;58.40;101747.00;5035624;28;20059;-78
2021/12/14 04:55:50;;;;;;;11.18;5.35;;;;;;;5.22;59.40;101743.03;5051488;28;20051;-78
2021/12/14 04:58:39;;;;;;;12.88;6.32;;;;;;;5.37;59.22;101745.88;5042969;28;20063;-78
2021/12/14 05:01:25;;;;;;;13.50;5.90;;;;;;;5.33;60.38;101733.16;5027551;28;20405;-77
2021/12/14 05:04:23;;;;;;;10.45;5.93;;;;;;;5.52;59.08;101747.91;5038545;28;20060;-77
2021/12/14 05:10:19;;;;;;;7.57;4.47;;;;;;;5.33;57.89;101743.94;5038699;28;20048;-77
2021/12/14 05:13:04;;;;;;;18.25;5.90;;;;;;;5.12;58.49;101746.44;5034018;28;20519;-76
2021/12/14 05:15:50;;;;;;;8.88;5.30;;;;;;;5.25;59.08;101744.38;5044302;28;20051;-78
2021/12/14 05:18:35;;;;;;;8.25;4.28;;;;;;;5.11;57.22;101752.88;5038944;28;20048;-77
2021/12/14 05:21:32;;;;;;;11.02;4.53;;;;;;;4.95;58.13;101771.84;5039571;28;20513;-77
2021/12/14 05:24:23;;;;;;;11.43;5.68;;;;;;;5.01;59.20;101768.94;5045851;28;20048;-77
2021/12/14 05:27:18;;;;;;;7.68;4.22;;;;;;;5.10;61.26;101783.59;5042430;28;20052;-77
2021/12/14 05:30:12;;;;;;;7.72;5.70;;;;;;;5.13;59.08;101788.47;5027194;28;20063;-77
2021/12/14 05:33:18;;;;;;;8.80;4.60;;;;;;;5.08;58.10;101793.00;5032116;28;20052;-77
2021/12/14 05:36:08;;;;;;;10.15;4.18;;;;;;;5.10;59.11;101791.69;5031452;28;20452;-78
2021/12/14 05:39:05;;;;;;;13.00;6.15;;;;;;;5.20;58.80;101792.88;5039944;28;20048;-77
2021/12/14 05:45:37;;;;;;;13.02;6.10;;;;;;;5.26;60.25;101802.66;5038718;28;20421;-78
2021/12/14 05:48:25;;;;;;;10.38;5.78;;;;;;;5.13;59.47;101803.84;5042419;28;20044;-76
2021/12/14 05:51:11;;;;;;;10.18;5.95;;;;;;;4.94;60.79;101803.34;5048138;28;20048;-76
2021/12/14 05:54:00;;;;;;;10.38;5.63;;;;;;;4.92;60.84;101805.50;5024320;28;20053;-76
2021/12/14 05:56:46;;;;;;;10.02;6.28;;;;;;;4.87;58.97;101815.41;5028023;28;20047;-77
2021/12/14 05:59:33;;;;;;;11.52;5.93;;;;;;;4.90;60.50;101810.31;5039263;28;20048;-76
2021/12/14 06:02:23;;;;;;;10.15;5.45;;;;;;;4.90;59.81;101807.63;5025555;28;20060;-76
2021/12/14 06:05:13;;;;;;;18.98;6.40;;;;;;;4.71;60.73;101807.13;5048583;28;20059;-76
2021/12/14 06:07:59;;;;;;;15.95;6.97;;;;;;;4.76;60.17;101808.25;5025016;28;20056;-75
2021/12/14 06:10:44;;;;;;;11.50;7.25;;;;;;;4.81;60.46;101797.53;5043246;28;20064;-75
2021/12/14 06:13:36;;;;;;;12.70;6.78;;;;;;;4.92;61.53;101800.13;5038044;28;20044;-75
2021/12/14 06:16:35;;;;;;;11.88;5.95;;;;;;;4.51;59.06;101795.25;5040735;28;20528;-75
2021/12/14 06:19:29;;;;;;;16.80;6.57;;;;;;;4.50;59.93;101799.81;5022799;28;20532;-77
2021/12/14 06:22:20;;;;;;;19.83;6.38;;;;;;;4.52;61.53;101802.28;5022478;28;20049;-75
2021/12/14 06:25:18;;;;;;;19.73;6.82;;;;;;;4.55;60.35;101801.75;5021167;28;20052;-77
2021/12/14 06:28:03;;;;;;;18.13;9.25;;;;;;;4.54;59.57;101800.13;5024929;28;20508;-77
2021/12/14 06:30:48;;;;;;;14.70;6.90;;;;;;;4.48;59.95;101807.31;5027451;28;20087;-77
2021/12/14 06:33:34;;;;;;;18.80;7.28;;;;;;;4.61;59.62;101806.16;5022809;28;20049;-78
2021/12/14 06:36:51;;;;;;;29.60;13.00;;;;;;;4.69;59.76;101805.72;5038989;28;20527;-77
2021/12/14 06:39:55;;;;;;;71.18;27.00;;;;;;;4.67;60.24;101808.66;5029667;28;20033;-77
2021/12/14 06:42:45;;;;;;;30.20;13.82;;;;;;;4.61;59.41;101804.28;5036244;28;20520;-76
2021/12/14 06:45:39;;;;;;;28.42;12.75;;;;;;;4.44;58.75;101810.75;5032261;28;20029;-76
2021/12/14 06:48:29;;;;;;;34.80;13.20;;;;;;;4.60;60.95;101809.91;5031486;28;20547;-75
2021/12/14 06:51:21;;;;;;;50.42;19.50;;;;;;;4.51;60.27;101811.41;5028796;28;20048;-76
2021/12/14 06:54:30;;;;;;;26.65;9.57;;;;;;;4.74;59.92;101811.19;5046055;28;20421;-76
2021/12/14 06:57:31;;;;;;;21.65;7.60;;;;;;;4.61;59.15;101816.94;5046692;28;20052;-77
2021/12/14 07:00:19;;;;;;;14.63;7.18;;;;;;;4.52;59.50;101818.44;5028681;28;20056;-78
2021/12/14 07:03:11;;;;;;;20.98;9.63;;;;;;;4.71;60.00;101807.13;5069334;23;20405;-75
2021/12/14 07:06:01;;;;;;;24.48;7.60;;;;;;;4.73;59.65;101801.47;5059521;28;20047;-75
2021/12/14 07:08:47;;;;;;;31.00;8.05;;;;;;;4.61;60.11;101801.59;5055513;28;20063;-75
2021/12/14 07:11:32;;;;;;;25.00;7.88;;;;;;;4.65;60.86;101800.03;5068152;28;20507;-75
2021/12/14 07:14:49;;;;;;;12.25;6.93;;;;;;;4.61;60.34;101811.56;5064386;28;20048;-77
2021/12/14 07:17:45;;;;;;;25.05;11.77;;;;;;;3.61;62.66;101806.19;5055988;28;20051;-77
2021/12/14 07:20:49;;;;;;;20.30;11.10;;;;;;;3.18;64.19;101801.34;5043310;28;20033;-77
2021/12/14 07:23:36;;;;;;;21.75;10.57;;;;;;;2.98;64.76;101801.78;5035076;28;20066;-77
2021/12/14 07:26:20;;;;;;;28.92;10.52;;;;;;;2.92;65.65;101805.41;5055025;28;20049;-77
2021/12/14 07:29:05;;;;;;;20.98;8.73;;;;;;;2.99;65.31;101806.91;5028750;28;20052;-76
2021/12/14 07:31:50;;;;;;;11.45;7.45;;;;;;;2.83;65.66;101799.59;5039743;28;20636;-77
2021/12/14 07:34:35;;;;;;;22.77;9.65;;;;;;;2.79;66.15;101803.81;5040004;28;20405;-79
2021/12/14 07:37:33;;;;;;;21.10;7.60;;;;;;;2.88;67.24;101806.94;5028382;28;20048;-76
2021/12/14 07:40:18;;;;;;;14.80;8.35;;;;;;;2.86;66.87;101809.84;5026822;28;20052;-77
2021/12/14 07:43:37;;;;;;;17.40;8.30;;;;;;;2.53;68.51;101825.78;5042509;28;20112;-77
2021/12/14 07:46:43;;;;;;;19.88;10.15;;;;;;;2.56;69.38;101831.50;5060518;28;20056;-77
2021/12/14 07:49:44;;;;;;;23.13;10.52;;;;;;;2.59;69.44;101838.28;5062952;28;20032;-77
2021/12/14 07:52:35;;;;;;;21.33;10.45;;;;;;;2.95;70.23;101829.09;5038719;28;20045;-77
2021/12/14 07:55:21;;;;;;;44.17;19.50;;;;;;;2.86;69.39;101830.53;5040787;28;20044;-78
2021/12/14 07:58:06;;;;;;;23.38;11.32;;;;;;;3.13;69.88;101838.88;5043839;28;20045;-78
2021/12/14 08:00:53;;;;;;;26.23;15.05;;;;;;;3.18;68.87;101836.28;5050758;28;20041;-78
2021/12/14 08:03:37;;;;;;;29.92;12.18;;;;;;;3.43;69.42;101845.66;5046722;28;20041;-77
2021/12/14 08:06:22;;;;;;;21.13;10.40;;;;;;;3.42;68.85;101848.59;5050276;28;20527;-77
2021/12/14 08:09:07;;;;;;;40.97;9.83;;;;;;;3.63;68.25;101852.47;5063340;28;20060;-77
2021/12/14 08:11:52;;;;;;;24.65;11.80;;;;;;;3.68;68.39;101845.31;5050939;28;20052;-77
2021/12/14 08:14:36;;;;;;;35.00;10.70;;;;;;;3.76;68.77;101836.84;5045151;28;20044;-77
2021/12/14 08:17:21;;;;;;;37.75;9.90;;;;;;;3.91;68.98;101824.75;5060253;28;20278;-77
2021/12/14 08:20:11;;;;;;;29.13;10.30;;;;;;;4.04;69.33;101824.41;5040903;28;20056;-77
2021/12/14 08:23:08;;;;;;;25.35;12.82;;;;;;;4.03;68.73;101818.22;5049823;28;20551;-77
2021/12/14 08:26:00;;;;;;;28.75;12.30;;;;;;;4.22;68.32;101814.19;5044438;28;20048;-77
2021/12/14 08:28:51;;;;;;;41.53;11.73;;;;;;;4.20;67.32;101820.91;5040464;28;20037;-77
2021/12/14 08:31:40;;;;;;;22.08;11.18;;;;;;;4.26;67.72;101826.13;5027315;28;20044;-77
2021/12/14 08:34:32;;;;;;;23.38;11.38;;;;;;;4.42;68.42;101834.44;5044661;28;20043;-76
2021/12/14 08:37:27;;;;;;;31.48;13.30;;;;;;;4.58;68.47;101829.00;5062403;28;20041;-77
2021/12/14 08:40:15;;;;;;;29.83;10.30;;;;;;;4.71;67.04;101833.25;5049307;28;20029;-77
2021/12/14 08:43:11;;;;;;;35.72;14.13;;;;;;;4.76;67.16;101830.63;5038922;28;20067;-78
2021/12/14 08:46:06;;;;;;;36.17;13.90;;;;;;;4.83;66.51;101839.31;5038123;28;20056;-77
2021/12/14 08:48:55;;;;;;;17.33;8.70;;;;;;;5.03;66.40;101842.28;5044240;28;20040;-77
2021/12/14 08:51:44;;;;;;;30.98;13.73;;;;;;;4.88;65.38;101838.56;5037049;28;20044;-77
2021/12/14 08:54:31;;;;;;;24.73;12.25;;;;;;;5.05;65.47;101839.34;5038775;28;20045;-77
2021/12/14 08:57:23;;;;;;;35.72;13.48;;;;;;;5.37;64.44;101836.75;5053007;28;20415;-77
2021/12/14 09:00:14;;;;;;;27.23;13.65;;;;;;;5.29;64.61;101840.69;5053072;28;20044;-77
2021/12/14 09:03:01;;;;;;;25.13;13.65;;;;;;;5.36;65.11;101835.13;5037575;28;20037;-77
2021/12/14 09:05:49;;;;;;;28.05;14.00;;;;;;;5.45;64.64;101830.91;5024676;28;20041;-77
2021/12/14 09:08:35;;;;;;;24.48;13.68;;;;;;;5.57;64.04;101832.41;5037735;28;20041;-77
2021/12/14 09:11:23;;;;;;;23.80;12.38;;;;;;;5.62;64.22;101841.59;5039786;28;20045;-77
2021/12/14 09:14:13;;;;;;;23.75;11.45;;;;;;;5.38;64.52;101857.28;5037642;28;20033;-77
2021/12/14 09:16:58;;;;;;;25.13;12.63;;;;;;;5.42;65.18;101851.13;5037475;28;20051;-77
2021/12/14 09:19:45;;;;;;;;;;;;;;;5.53;64.35;101849.34;5052115;28;20037;-77
2021/12/14 09:22:35;;;;;;;22.45;11.35;;;;;;;5.71;64.13;101843.59;5051685;28;19912;-77
2021/12/14 09:25:24;;;;;;;21.70;11.35;;;;;;;5.88;63.67;101848.91;5041635;28;20045;-77
2021/12/14 09:28:11;;;;;;;24.55;12.25;;;;;;;5.80;64.12;101858.25;5037669;28;20417;-77
2021/12/14 09:31:00;;;;;;;23.80;12.45;;;;;;;5.88;64.05;101865.94;5037621;28;20053;-77
2021/12/14 09:33:46;;;;;;;35.97;12.60;;;;;;;5.74;63.85;101869.25;5052212;28;20052;-77
2021/12/14 09:36:31;;;;;;;22.88;10.52;;;;;;;5.74;64.15;101856.56;5054093;28;20409;-77
2021/12/14 09:39:29;;;;;;;25.63;11.38;;;;;;;5.90;64.15;101858.38;5042801;28;20052;-77
2021/12/14 09:42:24;;;;;;;19.13;10.90;;;;;;;5.99;63.23;101850.63;5040568;28;20037;-76
2021/12/14 09:45:15;;;;;;;23.98;11.85;;;;;;;6.33;63.65;101849.28;5051920;28;20048;-77
2021/12/14 09:48:03;;;;;;;22.90;12.65;;;;;;;6.47;62.96;101854.25;5052282;28;20052;-77
2021/12/14 09:50:49;;;;;;;24.85;11.73;;;;;;;6.51;62.76;101858.88;5051949;28;20052;-77
2021/12/14 09:53:39;;;;;;;26.50;11.73;;;;;;;6.51;62.72;101837.25;5051819;28;20032;-77
2021/12/14 09:56:29;;;;;;;24.00;10.77;;;;;;;6.72;62.13;101843.59;5037014;28;20040;-77
2021/12/14 09:59:18;;;;;;;23.08;10.90;;;;;;;6.88;61.82;101851.53;5053273;28;20041;-77
2021/12/14 10:02:08;;;;;;;32.22;13.55;;;;;;;6.97;61.84;101843.72;5052418;28;20044;-77
2021/12/14 10:05:03;;;;;;;23.65;12.88;;;;;;;6.97;62.16;101857.25;5026835;28;20437;-77
2021/12/14 10:07:49;;;;;;;26.10;12.63;;;;;;;7.15;62.14;101847.88;5036774;28;20052;-77
2021/12/14 10:10:39;;;;;;;23.55;12.75;;;;;;;7.17;62.10;101848.41;5050769;28;20505;-77
2021/12/14 10:13:25;;;;;;;28.30;12.95;;;;;;;7.04;63.14;101840.78;5036781;28;20040;-77
2021/12/14 10:16:11;;;;;;;34.63;14.27;;;;;;;7.23;63.55;101836.53;5052270;28;20044;-77
2021/12/14 10:19:12;;;;;;;28.30;14.30;;;;;;;7.16;63.20;101825.16;5051689;28;20049;-77
2021/12/14 10:22:02;;;;;;;33.58;15.57;;;;;;;6.84;64.93;101820.69;5051520;28;20041;-77
2021/12/14 10:24:48;;;;;;;43.20;17.45;;;;;;;7.23;63.55;101826.53;5036119;28;20498;-77
2021/12/14 10:27:34;;;;;;;40.45;14.80;;;;;;;7.59;62.01;101824.72;5041216;28;20044;-77
2021/12/14 10:30:56;;;;;;;27.90;14.82;;;;;;;8.00;61.86;101827.47;5038755;28;20049;-77
2021/12/14 10:33:43;;;;;;;33.60;14.63;;;;;;;8.39;60.26;101827.75;4994773;28;20045;-77
2021/12/14 10:36:35;;;;;;;35.33;14.63;;;;;;;8.59;59.22;101817.69;5033748;28;20048;-77
2021/12/14 10:45:18;;;;;;;28.83;15.23;;;;;;;9.31;57.97;101813.63;5054214;28;20041;-77
2021/12/14 10:48:05;;;;;;;38.63;15.45;;;;;;;9.53;57.88;101828.72;5037133;28;20053;-77
2021/12/14 10:50:55;;;;;;;33.78;15.52;;;;;;;9.59;57.08;101822.16;5027281;28;20407;-77
2021/12/14 10:53:45;;;;;;;38.28;13.95;;;;;;;10.09;55.89;101810.09;5041281;28;20408;-77
2021/12/14 10:56:35;;;;;;;32.50;13.45;;;;;;;10.33;55.67;101807.47;5046548;28;20033;-77
2021/12/14 10:59:27;;;;;;;24.60;13.07;;;;;;;10.34;55.24;101803.66;5036330;28;20033;-77
2021/12/14 11:02:12;;;;;;;25.58;13.00;;;;;;;10.52;54.67;101801.00;5035537;28;20045;-77
2021/12/14 11:04:58;;;;;;;19.83;11.38;;;;;;;10.49;54.66;101798.06;5031120;28;20049;-77
2021/12/14 11:07:46;;;;;;;26.45;14.13;;;;;;;10.67;54.08;101803.56;5051638;28;20041;-77
2021/12/14 11:10:36;;;;;;;29.63;14.00;;;;;;;10.72;54.11;101797.25;5024100;28;20036;-77
2021/12/14 11:13:22;;;;;;;23.73;12.95;;;;;;;10.25;55.79;101796.13;5043078;28;20032;-77
2021/12/14 11:16:16;;;;;;;20.90;12.30;;;;;;;10.41;55.86;101790.53;5053229;28;20497;-77
2021/12/14 11:19:04;;;;;;;24.55;13.88;;;;;;;10.68;54.71;101785.34;5023243;28;20037;-77
2021/12/14 11:21:49;;;;;;;27.48;14.48;;;;;;;10.80;54.71;101783.03;5055795;28;20044;-77
2021/12/14 11:24:36;;;;;;;19.92;11.32;;;;;;;10.57;55.65;101772.94;5051199;28;20041;-77
2021/12/14 11:27:24;;;;;;;26.92;15.43;;;;;;;10.64;54.96;101762.53;5036244;28;20493;-77
2021/12/14 11:30:23;;;;;;;27.85;14.02;;;;;;;10.73;54.46;101769.78;5050336;28;20044;-77
2021/12/14 11:33:29;;;;;;;23.88;13.40;;;;;;;10.81;54.88;101767.53;5031920;28;20037;-77
2021/12/14 11:36:38;;;;;;;24.15;11.73;;;;;;;10.85;54.83;101763.09;5050458;28;20045;-77
2021/12/14 11:39:28;;;;;;;29.23;13.98;;;;;;;11.07;54.69;101766.09;5013014;28;20512;-77
2021/12/14 11:42:20;;;;;;;26.00;14.18;;;;;;;10.76;55.16;101771.13;5033188;28;20468;-77
2021/12/14 11:45:19;;;;;;;22.63;13.15;;;;;;;10.72;55.48;101764.59;5074377;28;20044;-77
2021/12/14 11:48:04;;;;;;;29.00;14.50;;;;;;;10.60;55.88;101759.59;5073417;28;20040;-77
2021/12/14 11:50:49;;;;;;;27.88;15.10;;;;;;;10.80;56.24;101753.09;5059367;28;20052;-78
2021/12/14 11:53:35;;;;;;;25.55;11.80;;;;;;;10.71;56.14;101757.56;5061626;28;20032;-77
2021/12/14 11:56:23;;;;;;;28.85;13.68;;;;;;;10.93;55.12;101752.38;5060177;28;20044;-77
2021/12/14 11:59:09;;;;;;;22.80;14.00;;;;;;;11.21;54.46;101750.66;5078207;28;20044;-77
2021/12/14 12:01:54;;;;;;;29.48;13.10;;;;;;;11.69;53.36;101745.81;5053475;28;20044;-77
2021/12/14 12:04:43;;;;;;;25.30;13.68;;;;;;;11.59;53.09;101745.97;5047607;28;20044;-77
2021/12/14 12:10:37;;;;;;;25.20;14.02;;;;;;;11.39;53.62;101735.41;5049091;28;20032;-77
2021/12/14 12:13:34;;;;;;;28.63;14.57;;;;;;;11.34;54.31;101727.31;5038840;28;20037;-77
2021/12/14 12:16:23;;;;;;;30.20;15.77;;;;;;;10.79;55.69;101723.47;5053233;28;20041;-77
2021/12/14 12:19:20;;;;;;;32.28;15.45;;;;;;;10.89;55.80;101715.16;5040963;28;20044;-77
2021/12/14 12:22:12;;;;;;;33.00;16.50;;;;;;;11.06;55.03;101708.13;5073978;28;20040;-77
2021/12/14 12:24:58;;;;;;;37.08;17.90;;;;;;;11.28;54.63;101712.97;5069260;28;20037;-77
2021/12/14 12:28:04;;;;;;;31.50;17.30;;;;;;;11.00;55.42;101709.28;5051242;28;20036;-77
2021/12/14 12:31:07;;;;;;;27.73;16.42;;;;;;;10.84;56.55;101694.28;5033700;28;20045;-77
2021/12/14 12:33:58;;;;;;;30.35;15.77;;;;;;;11.02;55.43;101684.50;5033322;28;20038;-77
2021/12/14 12:36:42;;;;;;;27.20;16.15;;;;;;;11.32;54.39;101691.41;5018686;28;20046;-77
2021/12/14 12:39:29;;;;;;;29.63;17.25;;;;;;;11.81;53.68;101686.25;5025105;28;20037;-77
2021/12/14 12:42:16;;;;;;;30.98;17.20;;;;;;;11.54;53.73;101686.94;5045203;28;20053;-77
2021/12/14 12:45:02;;;;;;;32.65;16.63;;;;;;;11.17;54.61;101681.56;5061526;28;20048;-77
2021/12/14 12:47:47;;;;;;;50.83;17.25;;;;;;;11.00;55.36;101682.09;5050113;28;20420;-77
2021/12/14 12:50:32;;;;;;;27.95;13.50;;;;;;;10.95;55.62;101676.72;5047732;28;20044;-77
2021/12/14 12:53:23;;;;;;;24.55;12.98;;;;;;;11.37;54.71;101675.81;5048530;28;20045;-77
2021/12/14 12:56:13;;;;;;;31.20;15.77;;;;;;;11.64;53.76;101666.09;5032293;28;20037;-77
2021/12/14 12:58:58;;;;;;;24.27;15.13;;;;;;;11.60;53.34;101668.59;5039432;28;20489;-77
2021/12/14 13:01:43;;;;;;;27.65;12.75;;;;;;;12.00;53.05;101667.09;5055793;28;20493;-77
2021/12/14 13:04:42;;;;;;;27.80;11.90;;;;;;;12.32;52.09;101660.75;5060957;23;20049;-77
2021/12/14 13:07:50;;;;;;;26.25;16.13;;;;;;;12.38;52.02;101665.00;5049081;28;20041;-78
2021/12/14 13:10:43;;;;;;;30.42;17.00;;;;;;;12.07;52.80;101664.78;5060316;28;20037;-78
2021/12/14 13:14:19;;;;;;;29.15;16.70;;;;;;;12.03;53.11;101669.25;5057258;28;20025;-79
2021/12/14 13:17:04;;;;;;;36.70;17.57;;;;;;;12.08;52.94;101657.44;5064700;28;20039;-78
2021/12/14 13:19:59;;;;;;;22.88;12.73;;;;;;;12.28;52.48;101659.75;5065546;28;20048;-78
2021/12/14 13:22:48;;;;;;;27.50;15.57;;;;;;;12.40;51.95;101663.56;5080926;28;20039;-78
2021/12/14 13:25:55;;;;;;;34.22;17.40;;;;;;;12.80;51.04;101667.34;5067238;28;20044;-78
2021/12/14 13:28:40;;;;;;;29.33;15.77;;;;;;;12.40;52.09;101657.31;5049217;28;20040;-79
2021/12/14 13:32:02;;;;;;;32.58;17.25;;;;;;;11.68;53.98;101650.78;5061013;28;20036;-79
2021/12/14 13:51:15;;;;;;;33.35;18.13;;;;;;;10.44;58.58;101648.56;5070035;28;20041;-80
2021/12/14 13:54:00;;;;;;;37.60;17.33;;;;;;;10.52;58.54;101635.13;5065536;28;20044;-81
2021/12/14 13:56:47;;;;;;;29.67;16.60;;;;;;;11.23;56.90;101646.88;5081049;28;20040;-82